sensor_id;sensor_type;location;lat;lon;timestamp;P1;durP1;ratioP1;P2;durP2;ratioP2
16640;SDS011;8434;47.990;7.880;2023-04-03T00:00:05;5.87;;;5.27;;
16640;SDS011;8434;47.990;7.880;2023-04-03T00:02:50;8.43;;;6.33;;
16640;SDS011;8434;47.990;7.880;2023-04-03T00:05:36;6.00;;;5.13;;
16640;SDS011;8434;47.990;7.880;2023-04-03T00:08:21;5.80;;;5.13;;
16640;SDS011;8434;47.990;7.880;2023-04-03T00:11:07;6.07;;;5.47;;
16640;SDS011;8434;47.990;7.880;2023-04-03T00:13:54;6.70;;;4.80;;
16640;SDS011;8434;47.990;7.880;2023-04-03T00:16:40;5.47;;;4.87;;
16640;SDS011;8434;47.990;7.880;2023-04-03T00:19:25;5.93;;;4.97;;
16640;SDS011;8434;47.990;7.880;2023-04-03T00:22:10;6.60;;;5.90;;
16640;SDS011;8434;47.990;7.880;2023-04-03T00:24:56;6.30;;;5.70;;
16640;SDS011;8434;47.990;7.880;2023-04-03T00:27:41;5.90;;;5.07;;
16640;SDS011;8434;47.990;7.880;2023-04-03T00:30:28;6.43;;;5.23;;
16640;SDS011;8434;47.990;7.880;2023-04-03T00:33:13;5.03;;;4.17;;
16640;SDS011;8434;47.990;7.880;2023-04-03T00:35:59;1.97;;;1.77;;
16640;SDS011;8434;47.990;7.880;2023-04-03T00:38:46;1.80;;;1.50;;
16640;SDS011;8434;47.990;7.880;2023-04-03T00:41:31;1.43;;;1.30;;
16640;SDS011;8434;47.990;7.880;2023-04-03T00:44:20;1.50;;;1.40;;
16640;SDS011;8434;47.990;7.880;2023-04-03T00:47:09;1.50;;;1.40;;
16640;SDS011;8434;47.990;7.880;2023-04-03T00:49:55;1.30;;;1.20;;
16640;SDS011;8434;47.990;7.880;2023-04-03T00:52:41;1.97;;;1.37;;
16640;SDS011;8434;47.990;7.880;2023-04-03T00:55:26;2.10;;;1.90;;
16640;SDS011;8434;47.990;7.880;2023-04-03T00:58:11;2.60;;;2.40;;
16640;SDS011;8434;47.990;7.880;2023-04-03T01:00:57;4.17;;;3.77;;
16640;SDS011;8434;47.990;7.880;2023-04-03T01:03:44;5.80;;;3.90;;
16640;SDS011;8434;47.990;7.880;2023-04-03T01:06:30;3.73;;;3.17;;
16640;SDS011;8434;47.990;7.880;2023-04-03T01:09:22;2.40;;;2.20;;
16640;SDS011;8434;47.990;7.880;2023-04-03T01:12:14;1.67;;;1.50;;
16640;SDS011;8434;47.990;7.880;2023-04-03T01:15:02;2.33;;;1.43;;
16640;SDS011;8434;47.990;7.880;2023-04-03T01:17:48;2.47;;;2.00;;
16640;SDS011;8434;47.990;7.880;2023-04-03T01:21:04;2.83;;;2.20;;
16640;SDS011;8434;47.990;7.880;2023-04-03T01:23:54;2.97;;;2.47;;
16640;SDS011;8434;47.990;7.880;2023-04-03T01:26:43;3.07;;;2.53;;
16640;SDS011;8434;47.990;7.880;2023-04-03T01:29:29;3.30;;;3.00;;
16640;SDS011;8434;47.990;7.880;2023-04-03T01:32:16;4.07;;;3.20;;
16640;SDS011;8434;47.990;7.880;2023-04-03T01:35:02;4.17;;;3.30;;
16640;SDS011;8434;47.990;7.880;2023-04-03T01:37:47;6.73;;;3.83;;
16640;SDS011;8434;47.990;7.880;2023-04-03T01:40:32;4.43;;;3.30;;
16640;SDS011;8434;47.990;7.880;2023-04-03T01:43:18;3.33;;;2.90;;
16640;SDS011;8434;47.990;7.880;2023-04-03T01:46:03;4.50;;;3.37;;
16640;SDS011;8434;47.990;7.880;2023-04-03T01:48:50;4.33;;;3.33;;
16640;SDS011;8434;47.990;7.880;2023-04-03T01:51:35;3.13;;;2.83;;
16640;SDS011;8434;47.990;7.880;2023-04-03T01:54:21;3.07;;;2.70;;
16640;SDS011;8434;47.990;7.880;2023-04-03T01:57:06;3.07;;;2.77;;
16640;SDS011;8434;47.990;7.880;2023-04-03T01:59:53;3.37;;;3.07;;
16640;SDS011;8434;47.990;7.880;2023-04-03T02:02:38;3.73;;;3.00;;
16640;SDS011;8434;47.990;7.880;2023-04-03T02:05:25;3.07;;;2.60;;
16640;SDS011;8434;47.990;7.880;2023-04-03T02:08:10;6.17;;;2.87;;
16640;SDS011;8434;47.990;7.880;2023-04-03T02:10:56;3.57;;;2.53;;
16640;SDS011;8434;47.990;7.880;2023-04-03T02:13:42;3.00;;;2.70;;
16640;SDS011;8434;47.990;7.880;2023-04-03T02:16:27;3.17;;;2.87;;
16640;SDS011;8434;47.990;7.880;2023-04-03T02:19:14;3.80;;;2.60;;
16640;SDS011;8434;47.990;7.880;2023-04-03T02:22:01;1.90;;;1.80;;
16640;SDS011;8434;47.990;7.880;2023-04-03T02:24:47;4.10;;;2.80;;
16640;SDS011;8434;47.990;7.880;2023-04-03T02:27:33;3.57;;;2.50;;
16640;SDS011;8434;47.990;7.880;2023-04-03T02:30:19;2.30;;;2.10;;
16640;SDS011;8434;47.990;7.880;2023-04-03T02:33:04;4.23;;;2.93;;
16640;SDS011;8434;47.990;7.880;2023-04-03T02:35:51;2.70;;;2.50;;
16640;SDS011;8434;47.990;7.880;2023-04-03T02:38:40;2.63;;;2.20;;
16640;SDS011;8434;47.990;7.880;2023-04-03T02:41:27;3.03;;;2.60;;
16640;SDS011;8434;47.990;7.880;2023-04-03T02:44:18;3.17;;;2.87;;
16640;SDS011;8434;47.990;7.880;2023-04-03T02:47:04;3.53;;;2.70;;
16640;SDS011;8434;47.990;7.880;2023-04-03T02:49:51;3.07;;;2.50;;
16640;SDS011;8434;47.990;7.880;2023-04-03T02:52:36;2.97;;;2.60;;
16640;SDS011;8434;47.990;7.880;2023-04-03T02:55:23;2.80;;;2.43;;
16640;SDS011;8434;47.990;7.880;2023-04-03T02:58:12;2.93;;;2.50;;
16640;SDS011;8434;47.990;7.880;2023-04-03T03:00:58;3.10;;;2.80;;
16640;SDS011;8434;47.990;7.880;2023-04-03T03:03:43;2.47;;;2.27;;
16640;SDS011;8434;47.990;7.880;2023-04-03T03:06:28;5.90;;;3.27;;
16640;SDS011;8434;47.990;7.880;2023-04-03T03:09:14;3.47;;;2.77;;
16640;SDS011;8434;47.990;7.880;2023-04-03T03:12:01;3.27;;;2.90;;
16640;SDS011;8434;47.990;7.880;2023-04-03T03:14:47;3.20;;;2.57;;
16640;SDS011;8434;47.990;7.880;2023-04-03T03:17:34;5.50;;;2.83;;
16640;SDS011;8434;47.990;7.880;2023-04-03T03:20:20;3.70;;;3.13;;
16640;SDS011;8434;47.990;7.880;2023-04-03T03:23:05;4.60;;;3.10;;
16640;SDS011;8434;47.990;7.880;2023-04-03T03:25:54;3.23;;;2.70;;
16640;SDS011;8434;47.990;7.880;2023-04-03T03:28:40;3.37;;;2.90;;
16640;SDS011;8434;47.990;7.880;2023-04-03T03:31:26;3.20;;;2.70;;
16640;SDS011;8434;47.990;7.880;2023-04-03T03:34:12;3.50;;;3.10;;
16640;SDS011;8434;47.990;7.880;2023-04-03T03:36:57;3.53;;;2.80;;
16640;SDS011;8434;47.990;7.880;2023-04-03T03:39:43;3.80;;;2.97;;
16640;SDS011;8434;47.990;7.880;2023-04-03T03:42:28;3.97;;;2.70;;
16640;SDS011;8434;47.990;7.880;2023-04-03T03:45:15;3.20;;;2.77;;
16640;SDS011;8434;47.990;7.880;2023-04-03T03:48:00;4.00;;;2.80;;
16640;SDS011;8434;47.990;7.880;2023-04-03T03:50:46;3.17;;;2.80;;
16640;SDS011;8434;47.990;7.880;2023-04-03T03:53:32;3.43;;;3.13;;
16640;SDS011;8434;47.990;7.880;2023-04-03T03:56:22;4.87;;;3.17;;
16640;SDS011;8434;47.990;7.880;2023-04-03T03:59:08;3.53;;;2.43;;
16640;SDS011;8434;47.990;7.880;2023-04-03T04:01:55;2.80;;;2.50;;
16640;SDS011;8434;47.990;7.880;2023-04-03T04:04:40;3.13;;;2.63;;
16640;SDS011;8434;47.990;7.880;2023-04-03T04:07:25;3.57;;;2.80;;
16640;SDS011;8434;47.990;7.880;2023-04-03T04:10:12;3.60;;;2.63;;
16640;SDS011;8434;47.990;7.880;2023-04-03T04:12:58;2.67;;;2.37;;
16640;SDS011;8434;47.990;7.880;2023-04-03T04:15:46;3.10;;;2.80;;
16640;SDS011;8434;47.990;7.880;2023-04-03T04:18:35;3.43;;;2.70;;
16640;SDS011;8434;47.990;7.880;2023-04-03T04:21:20;4.33;;;2.40;;
16640;SDS011;8434;47.990;7.880;2023-04-03T04:24:08;2.93;;;2.50;;
16640;SDS011;8434;47.990;7.880;2023-04-03T04:26:54;2.80;;;2.50;;
16640;SDS011;8434;47.990;7.880;2023-04-03T04:29:40;2.53;;;2.33;;
16640;SDS011;8434;47.990;7.880;2023-04-03T04:32:26;9.63;;;6.17;;
16640;SDS011;8434;47.990;7.880;2023-04-03T04:35:13;2.90;;;2.60;;
16640;SDS011;8434;47.990;7.880;2023-04-03T04:38:00;2.83;;;2.60;;
16640;SDS011;8434;47.990;7.880;2023-04-03T04:40:47;3.47;;;3.17;;
16640;SDS011;8434;47.990;7.880;2023-04-03T04:43:33;3.60;;;2.67;;
16640;SDS011;8434;47.990;7.880;2023-04-03T04:46:19;5.30;;;2.50;;
16640;SDS011;8434;47.990;7.880;2023-04-03T04:49:09;2.43;;;2.23;;
16640;SDS011;8434;47.990;7.880;2023-04-03T04:51:57;3.50;;;2.60;;
16640;SDS011;8434;47.990;7.880;2023-04-03T04:54:47;2.97;;;2.00;;
16640;SDS011;8434;47.990;7.880;2023-04-03T04:57:32;2.77;;;2.27;;
16640;SDS011;8434;47.990;7.880;2023-04-03T05:00:19;3.07;;;2.30;;
16640;SDS011;8434;47.990;7.880;2023-04-03T05:03:05;2.43;;;1.97;;
16640;SDS011;8434;47.990;7.880;2023-04-03T05:05:50;4.13;;;2.23;;
16640;SDS011;8434;47.990;7.880;2023-04-03T05:08:37;2.87;;;2.50;;
16640;SDS011;8434;47.990;7.880;2023-04-03T05:11:23;3.80;;;2.53;;
16640;SDS011;8434;47.990;7.880;2023-04-03T05:14:10;2.67;;;2.47;;
16640;SDS011;8434;47.990;7.880;2023-04-03T05:16:55;2.87;;;2.20;;
16640;SDS011;8434;47.990;7.880;2023-04-03T05:19:44;5.27;;;2.33;;
16640;SDS011;8434;47.990;7.880;2023-04-03T05:22:30;2.10;;;1.90;;
16640;SDS011;8434;47.990;7.880;2023-04-03T05:25:23;2.40;;;2.20;;
16640;SDS011;8434;47.990;7.880;2023-04-03T05:28:09;2.37;;;2.17;;
16640;SDS011;8434;47.990;7.880;2023-04-03T05:30:55;2.20;;;2.00;;
16640;SDS011;8434;47.990;7.880;2023-04-03T05:33:43;2.30;;;2.10;;
16640;SDS011;8434;47.990;7.880;2023-04-03T05:36:34;2.43;;;2.23;;
16640;SDS011;8434;47.990;7.880;2023-04-03T05:39:22;2.50;;;2.30;;
16640;SDS011;8434;47.990;7.880;2023-04-03T05:42:10;1.67;;;1.50;;
16640;SDS011;8434;47.990;7.880;2023-04-03T05:44:56;1.70;;;1.60;;
16640;SDS011;8434;47.990;7.880;2023-04-03T05:47:42;2.70;;;2.17;;
16640;SDS011;8434;47.990;7.880;2023-04-03T05:50:28;2.00;;;1.90;;
16640;SDS011;8434;47.990;7.880;2023-04-03T05:53:15;2.30;;;1.93;;
16640;SDS011;8434;47.990;7.880;2023-04-03T05:56:02;2.87;;;2.30;;
16640;SDS011;8434;47.990;7.880;2023-04-03T05:58:51;2.07;;;1.90;;
16640;SDS011;8434;47.990;7.880;2023-04-03T06:01:37;2.47;;;2.27;;
16640;SDS011;8434;47.990;7.880;2023-04-03T06:04:22;2.97;;;2.47;;
16640;SDS011;8434;47.990;7.880;2023-04-03T06:07:09;2.20;;;2.00;;
16640;SDS011;8434;47.990;7.880;2023-04-03T06:09:56;3.07;;;2.33;;
16640;SDS011;8434;47.990;7.880;2023-04-03T06:12:41;2.30;;;2.10;;
16640;SDS011;8434;47.990;7.880;2023-04-03T06:15:28;2.63;;;2.23;;
16640;SDS011;8434;47.990;7.880;2023-04-03T06:18:14;3.43;;;2.40;;
16640;SDS011;8434;47.990;7.880;2023-04-03T06:20:59;2.10;;;1.93;;
16640;SDS011;8434;47.990;7.880;2023-04-03T06:23:46;2.20;;;2.00;;
16640;SDS011;8434;47.990;7.880;2023-04-03T06:26:32;2.53;;;2.33;;
16640;SDS011;8434;47.990;7.880;2023-04-03T06:29:17;2.80;;;2.47;;
16640;SDS011;8434;47.990;7.880;2023-04-03T06:32:05;2.10;;;1.90;;
16640;SDS011;8434;47.990;7.880;2023-04-03T06:34:51;2.23;;;1.87;;
16640;SDS011;8434;47.990;7.880;2023-04-03T06:37:37;3.77;;;1.87;;
16640;SDS011;8434;47.990;7.880;2023-04-03T06:40:23;2.20;;;1.77;;
16640;SDS011;8434;47.990;7.880;2023-04-03T06:43:09;2.33;;;1.73;;
16640;SDS011;8434;47.990;7.880;2023-04-03T06:45:54;1.97;;;1.87;;
16640;SDS011;8434;47.990;7.880;2023-04-03T06:48:41;2.10;;;1.90;;
16640;SDS011;8434;47.990;7.880;2023-04-03T06:51:27;2.30;;;2.10;;
16640;SDS011;8434;47.990;7.880;2023-04-03T06:54:13;1.83;;;1.67;;
16640;SDS011;8434;47.990;7.880;2023-04-03T06:56:58;2.90;;;2.17;;
16640;SDS011;8434;47.990;7.880;2023-04-03T06:59:44;4.20;;;2.17;;
16640;SDS011;8434;47.990;7.880;2023-04-03T07:02:32;1.67;;;1.33;;
16640;SDS011;8434;47.990;7.880;2023-04-03T07:05:19;2.00;;;1.80;;
16640;SDS011;8434;47.990;7.880;2023-04-03T07:08:04;2.13;;;1.90;;
16640;SDS011;8434;47.990;7.880;2023-04-03T07:10:50;1.70;;;1.57;;
16640;SDS011;8434;47.990;7.880;2023-04-03T07:13:35;1.80;;;1.70;;
16640;SDS011;8434;47.990;7.880;2023-04-03T07:16:21;1.93;;;1.70;;
16640;SDS011;8434;47.990;7.880;2023-04-03T07:19:06;2.13;;;1.90;;
16640;SDS011;8434;47.990;7.880;2023-04-03T07:21:54;2.20;;;2.00;;
16640;SDS011;8434;47.990;7.880;2023-04-03T07:24:39;1.77;;;1.67;;
16640;SDS011;8434;47.990;7.880;2023-04-03T07:27:25;2.37;;;2.03;;
16640;SDS011;8434;47.990;7.880;2023-04-03T07:30:11;2.10;;;1.90;;
16640;SDS011;8434;47.990;7.880;2023-04-03T07:32:57;2.20;;;2.00;;
16640;SDS011;8434;47.990;7.880;2023-04-03T07:35:43;2.30;;;2.10;;
16640;SDS011;8434;47.990;7.880;2023-04-03T07:38:30;3.10;;;2.40;;
16640;SDS011;8434;47.990;7.880;2023-04-03T07:41:16;2.33;;;2.13;;
16640;SDS011;8434;47.990;7.880;2023-04-03T07:44:02;2.53;;;2.30;;
16640;SDS011;8434;47.990;7.880;2023-04-03T07:46:48;2.40;;;2.20;;
16640;SDS011;8434;47.990;7.880;2023-04-03T07:49:34;3.57;;;2.50;;
16640;SDS011;8434;47.990;7.880;2023-04-03T07:52:21;2.93;;;2.33;;
16640;SDS011;8434;47.990;7.880;2023-04-03T07:55:09;2.40;;;2.20;;
16640;SDS011;8434;47.990;7.880;2023-04-03T07:57:54;2.70;;;2.50;;
16640;SDS011;8434;47.990;7.880;2023-04-03T08:00:40;2.90;;;2.60;;
16640;SDS011;8434;47.990;7.880;2023-04-03T08:03:25;2.50;;;2.30;;
16640;SDS011;8434;47.990;7.880;2023-04-03T08:06:11;3.53;;;2.50;;
16640;SDS011;8434;47.990;7.880;2023-04-03T08:08:57;3.13;;;2.40;;
16640;SDS011;8434;47.990;7.880;2023-04-03T08:11:45;2.90;;;2.50;;
16640;SDS011;8434;47.990;7.880;2023-04-03T08:14:30;2.87;;;2.60;;
16640;SDS011;8434;47.990;7.880;2023-04-03T08:17:18;3.17;;;2.87;;
16640;SDS011;8434;47.990;7.880;2023-04-03T08:20:04;3.00;;;2.70;;
16640;SDS011;8434;47.990;7.880;2023-04-03T08:22:50;3.80;;;3.10;;
16640;SDS011;8434;47.990;7.880;2023-04-03T08:25:37;3.23;;;2.93;;
16640;SDS011;8434;47.990;7.880;2023-04-03T08:28:24;3.90;;;2.97;;
16640;SDS011;8434;47.990;7.880;2023-04-03T08:31:10;3.20;;;3.00;;
16640;SDS011;8434;47.990;7.880;2023-04-03T08:33:56;4.17;;;3.57;;
16640;SDS011;8434;47.990;7.880;2023-04-03T08:36:42;3.43;;;3.13;;
16640;SDS011;8434;47.990;7.880;2023-04-03T08:39:27;3.10;;;2.80;;
16640;SDS011;8434;47.990;7.880;2023-04-03T08:42:15;4.87;;;3.00;;
16640;SDS011;8434;47.990;7.880;2023-04-03T08:45:04;3.53;;;3.23;;
16640;SDS011;8434;47.990;7.880;2023-04-03T08:47:52;5.50;;;3.17;;
16640;SDS011;8434;47.990;7.880;2023-04-03T08:50:41;4.27;;;2.93;;
16640;SDS011;8434;47.990;7.880;2023-04-03T08:53:28;4.17;;;3.17;;
16640;SDS011;8434;47.990;7.880;2023-04-03T08:56:16;3.57;;;3.27;;
16640;SDS011;8434;47.990;7.880;2023-04-03T08:59:04;3.90;;;3.17;;
16640;SDS011;8434;47.990;7.880;2023-04-03T09:01:52;4.33;;;2.93;;
16640;SDS011;8434;47.990;7.880;2023-04-03T09:04:38;4.87;;;2.93;;
16640;SDS011;8434;47.990;7.880;2023-04-03T09:07:25;3.47;;;2.70;;
16640;SDS011;8434;47.990;7.880;2023-04-03T09:10:23;4.70;;;3.03;;
16640;SDS011;8434;47.990;7.880;2023-04-03T09:13:11;3.00;;;2.57;;
16640;SDS011;8434;47.990;7.880;2023-04-03T09:15:59;4.80;;;3.30;;
16640;SDS011;8434;47.990;7.880;2023-04-03T09:18:50;3.23;;;2.93;;
16640;SDS011;8434;47.990;7.880;2023-04-03T09:21:37;3.70;;;3.10;;
16640;SDS011;8434;47.990;7.880;2023-04-03T09:24:25;6.27;;;3.03;;
16640;SDS011;8434;47.990;7.880;2023-04-03T09:27:11;5.17;;;3.10;;
16640;SDS011;8434;47.990;7.880;2023-04-03T09:29:57;3.47;;;2.77;;
16640;SDS011;8434;47.990;7.880;2023-04-03T09:32:44;4.10;;;3.10;;
16640;SDS011;8434;47.990;7.880;2023-04-03T09:35:32;3.50;;;3.03;;
16640;SDS011;8434;47.990;7.880;2023-04-03T09:38:18;3.77;;;2.43;;
16640;SDS011;8434;47.990;7.880;2023-04-03T09:41:05;3.73;;;2.40;;
16640;SDS011;8434;47.990;7.880;2023-04-03T09:43:52;2.67;;;2.03;;
16640;SDS011;8434;47.990;7.880;2023-04-03T09:46:38;2.17;;;1.97;;
16640;SDS011;8434;47.990;7.880;2023-04-03T09:49:23;2.70;;;2.00;;
16640;SDS011;8434;47.990;7.880;2023-04-03T09:52:19;2.67;;;2.10;;
16640;SDS011;8434;47.990;7.880;2023-04-03T09:55:06;2.40;;;2.20;;
16640;SDS011;8434;47.990;7.880;2023-04-03T09:57:52;2.37;;;1.87;;
16640;SDS011;8434;47.990;7.880;2023-04-03T10:00:38;2.10;;;1.93;;
16640;SDS011;8434;47.990;7.880;2023-04-03T10:03:27;4.97;;;2.30;;
16640;SDS011;8434;47.990;7.880;2023-04-03T10:06:21;2.13;;;1.93;;
16640;SDS011;8434;47.990;7.880;2023-04-03T10:09:14;2.17;;;1.83;;
16640;SDS011;8434;47.990;7.880;2023-04-03T10:12:02;3.33;;;1.87;;
16640;SDS011;8434;47.990;7.880;2023-04-03T10:14:53;2.40;;;1.87;;
16640;SDS011;8434;47.990;7.880;2023-04-03T10:17:42;2.20;;;2.00;;
16640;SDS011;8434;47.990;7.880;2023-04-03T10:20:32;2.70;;;2.20;;
16640;SDS011;8434;47.990;7.880;2023-04-03T10:23:21;2.30;;;2.10;;
16640;SDS011;8434;47.990;7.880;2023-04-03T10:26:11;1.87;;;1.70;;
16640;SDS011;8434;47.990;7.880;2023-04-03T10:29:01;1.53;;;1.43;;
16640;SDS011;8434;47.990;7.880;2023-04-03T10:31:49;1.90;;;1.80;;
16640;SDS011;8434;47.990;7.880;2023-04-03T10:34:37;1.73;;;1.63;;
16640;SDS011;8434;47.990;7.880;2023-04-03T10:37:25;2.57;;;2.00;;
16640;SDS011;8434;47.990;7.880;2023-04-03T10:40:15;2.60;;;1.87;;
16640;SDS011;8434;47.990;7.880;2023-04-03T10:43:04;1.67;;;1.57;;
16640;SDS011;8434;47.990;7.880;2023-04-03T10:45:53;2.17;;;1.90;;
16640;SDS011;8434;47.990;7.880;2023-04-03T10:48:44;1.83;;;1.73;;
16640;SDS011;8434;47.990;7.880;2023-04-03T10:51:35;4.03;;;2.00;;
16640;SDS011;8434;47.990;7.880;2023-04-03T10:54:24;3.80;;;2.20;;
16640;SDS011;8434;47.990;7.880;2023-04-03T10:57:10;2.57;;;1.80;;
16640;SDS011;8434;47.990;7.880;2023-04-03T10:59:58;1.90;;;1.80;;
16640;SDS011;8434;47.990;7.880;2023-04-03T11:02:45;2.40;;;2.07;;
16640;SDS011;8434;47.990;7.880;2023-04-03T11:05:34;2.23;;;1.97;;
16640;SDS011;8434;47.990;7.880;2023-04-03T11:08:24;2.10;;;1.90;;
16640;SDS011;8434;47.990;7.880;2023-04-03T11:11:11;3.03;;;2.00;;
16640;SDS011;8434;47.990;7.880;2023-04-03T11:13:59;2.40;;;1.90;;
16640;SDS011;8434;47.990;7.880;2023-04-03T11:16:58;1.60;;;1.50;;
16640;SDS011;8434;47.990;7.880;2023-04-03T11:19:45;3.57;;;2.13;;
16640;SDS011;8434;47.990;7.880;2023-04-03T11:22:32;2.20;;;2.00;;
16640;SDS011;8434;47.990;7.880;2023-04-03T11:25:19;2.27;;;1.90;;
16640;SDS011;8434;47.990;7.880;2023-04-03T11:28:09;2.17;;;1.97;;
16640;SDS011;8434;47.990;7.880;2023-04-03T11:30:58;2.27;;;1.60;;
16640;SDS011;8434;47.990;7.880;2023-04-03T11:33:51;2.23;;;2.03;;
16640;SDS011;8434;47.990;7.880;2023-04-03T11:36:39;2.57;;;2.03;;
16640;SDS011;8434;47.990;7.880;2023-04-03T11:39:26;2.20;;;2.00;;
16640;SDS011;8434;47.990;7.880;2023-04-03T11:42:15;2.27;;;1.90;;
16640;SDS011;8434;47.990;7.880;2023-04-03T11:48:05;2.10;;;1.90;;
16640;SDS011;8434;47.990;7.880;2023-04-03T11:50:53;2.93;;;2.20;;
16640;SDS011;8434;47.990;7.880;2023-04-03T11:53:38;2.50;;;1.73;;
16640;SDS011;8434;47.990;7.880;2023-04-03T11:56:28;1.60;;;1.50;;
16640;SDS011;8434;47.990;7.880;2023-04-03T11:59:15;2.37;;;1.70;;
16640;SDS011;8434;47.990;7.880;2023-04-03T12:02:14;2.93;;;2.20;;
16640;SDS011;8434;47.990;7.880;2023-04-03T12:05:23;2.70;;;1.77;;
16640;SDS011;8434;47.990;7.880;2023-04-03T12:08:23;2.07;;;1.87;;
16640;SDS011;8434;47.990;7.880;2023-04-03T12:11:22;1.97;;;1.80;;
16640;SDS011;8434;47.990;7.880;2023-04-03T12:14:12;2.00;;;1.83;;
16640;SDS011;8434;47.990;7.880;2023-04-03T12:16:59;2.60;;;2.00;;
16640;SDS011;8434;47.990;7.880;2023-04-03T12:19:44;2.27;;;2.07;;
16640;SDS011;8434;47.990;7.880;2023-04-03T12:22:30;4.83;;;2.20;;
16640;SDS011;8434;47.990;7.880;2023-04-03T12:28:20;2.20;;;2.00;;
16640;SDS011;8434;47.990;7.880;2023-04-03T12:31:06;3.37;;;2.20;;
16640;SDS011;8434;47.990;7.880;2023-04-03T12:33:59;1.93;;;1.83;;
16640;SDS011;8434;47.990;7.880;2023-04-03T12:36:49;2.07;;;1.90;;
16640;SDS011;8434;47.990;7.880;2023-04-03T12:39:48;2.40;;;2.20;;
16640;SDS011;8434;47.990;7.880;2023-04-03T12:42:52;1.97;;;1.83;;
16640;SDS011;8434;47.990;7.880;2023-04-03T12:45:42;2.20;;;2.00;;
16640;SDS011;8434;47.990;7.880;2023-04-03T12:48:30;2.20;;;2.00;;
16640;SDS011;8434;47.990;7.880;2023-04-03T12:51:18;2.57;;;1.80;;
16640;SDS011;8434;47.990;7.880;2023-04-03T12:54:11;2.70;;;1.77;;
16640;SDS011;8434;47.990;7.880;2023-04-03T12:57:08;3.00;;;2.10;;
16640;SDS011;8434;47.990;7.880;2023-04-03T12:59:54;4.17;;;2.30;;
16640;SDS011;8434;47.990;7.880;2023-04-03T13:02:43;3.57;;;2.10;;
16640;SDS011;8434;47.990;7.880;2023-04-03T13:05:30;3.67;;;2.50;;
16640;SDS011;8434;47.990;7.880;2023-04-03T13:08:16;5.60;;;2.50;;
16640;SDS011;8434;47.990;7.880;2023-04-03T13:11:05;2.70;;;1.83;;
16640;SDS011;8434;47.990;7.880;2023-04-03T13:13:57;2.20;;;2.00;;
16640;SDS011;8434;47.990;7.880;2023-04-03T13:16:52;2.83;;;2.07;;
16640;SDS011;8434;47.990;7.880;2023-04-03T13:19:39;2.13;;;1.90;;
16640;SDS011;8434;47.990;7.880;2023-04-03T13:22:26;2.77;;;2.03;;
16640;SDS011;8434;47.990;7.880;2023-04-03T13:25:13;2.00;;;1.80;;
16640;SDS011;8434;47.990;7.880;2023-04-03T13:27:59;2.30;;;2.10;;
16640;SDS011;8434;47.990;7.880;2023-04-03T13:30:54;2.37;;;2.10;;
16640;SDS011;8434;47.990;7.880;2023-04-03T13:33:41;3.03;;;2.20;;
16640;SDS011;8434;47.990;7.880;2023-04-03T13:36:31;2.57;;;2.13;;
16640;SDS011;8434;47.990;7.880;2023-04-03T13:39:23;2.93;;;1.97;;
16640;SDS011;8434;47.990;7.880;2023-04-03T13:42:15;2.97;;;2.30;;
16640;SDS011;8434;47.990;7.880;2023-04-03T13:45:16;2.53;;;1.93;;
16640;SDS011;8434;47.990;7.880;2023-04-03T13:48:09;3.33;;;1.93;;
16640;SDS011;8434;47.990;7.880;2023-04-03T13:50:57;2.10;;;1.90;;
16640;SDS011;8434;47.990;7.880;2023-04-03T13:53:45;1.70;;;1.60;;
16640;SDS011;8434;47.990;7.880;2023-04-03T13:56:31;2.67;;;1.90;;
16640;SDS011;8434;47.990;7.880;2023-04-03T13:59:22;2.43;;;2.23;;
16640;SDS011;8434;47.990;7.880;2023-04-03T14:02:12;3.10;;;1.90;;
16640;SDS011;8434;47.990;7.880;2023-04-03T14:04:58;3.30;;;2.03;;
16640;SDS011;8434;47.990;7.880;2023-04-03T14:07:45;2.07;;;1.87;;
16640;SDS011;8434;47.990;7.880;2023-04-03T14:10:32;1.93;;;1.80;;
16640;SDS011;8434;47.990;7.880;2023-04-03T14:13:18;3.50;;;2.00;;
16640;SDS011;8434;47.990;7.880;2023-04-03T14:16:05;4.93;;;1.93;;
16640;SDS011;8434;47.990;7.880;2023-04-03T14:18:50;2.17;;;1.97;;
16640;SDS011;8434;47.990;7.880;2023-04-03T14:21:36;4.90;;;1.83;;
16640;SDS011;8434;47.990;7.880;2023-04-03T14:24:22;1.97;;;1.73;;
16640;SDS011;8434;47.990;7.880;2023-04-03T14:27:11;2.57;;;1.80;;
16640;SDS011;8434;47.990;7.880;2023-04-03T14:29:58;2.13;;;1.57;;
16640;SDS011;8434;47.990;7.880;2023-04-03T14:32:44;2.30;;;1.63;;
16640;SDS011;8434;47.990;7.880;2023-04-03T14:35:29;2.57;;;1.60;;
16640;SDS011;8434;47.990;7.880;2023-04-03T14:38:20;3.07;;;1.83;;
16640;SDS011;8434;47.990;7.880;2023-04-03T14:41:06;1.90;;;1.70;;
16640;SDS011;8434;47.990;7.880;2023-04-03T14:43:56;2.67;;;2.00;;
16640;SDS011;8434;47.990;7.880;2023-04-03T14:46:42;2.87;;;2.20;;
16640;SDS011;8434;47.990;7.880;2023-04-03T14:49:28;2.20;;;1.90;;
16640;SDS011;8434;47.990;7.880;2023-04-03T14:52:16;2.07;;;1.87;;
16640;SDS011;8434;47.990;7.880;2023-04-03T14:55:03;4.00;;;1.90;;
16640;SDS011;8434;47.990;7.880;2023-04-03T14:57:49;4.07;;;2.30;;
16640;SDS011;8434;47.990;7.880;2023-04-03T15:00:36;3.23;;;1.97;;
16640;SDS011;8434;47.990;7.880;2023-04-03T15:03:22;3.00;;;1.70;;
16640;SDS011;8434;47.990;7.880;2023-04-03T15:06:08;1.97;;;1.67;;
16640;SDS011;8434;47.990;7.880;2023-04-03T15:08:55;1.70;;;1.60;;
16640;SDS011;8434;47.990;7.880;2023-04-03T15:11:40;2.70;;;1.70;;
16640;SDS011;8434;47.990;7.880;2023-04-03T15:14:26;2.93;;;1.77;;
16640;SDS011;8434;47.990;7.880;2023-04-03T15:17:14;3.27;;;1.60;;
16640;SDS011;8434;47.990;7.880;2023-04-03T15:20:00;2.00;;;1.73;;
16640;SDS011;8434;47.990;7.880;2023-04-03T15:22:46;2.20;;;2.00;;
16640;SDS011;8434;47.990;7.880;2023-04-03T15:25:31;2.20;;;2.00;;
16640;SDS011;8434;47.990;7.880;2023-04-03T15:28:18;2.33;;;2.00;;
16640;SDS011;8434;47.990;7.880;2023-04-03T15:31:04;2.23;;;2.03;;
16640;SDS011;8434;47.990;7.880;2023-04-03T15:33:50;2.20;;;1.63;;
16640;SDS011;8434;47.990;7.880;2023-04-03T15:36:36;1.90;;;1.70;;
16640;SDS011;8434;47.990;7.880;2023-04-03T15:39:21;2.20;;;2.00;;
16640;SDS011;8434;47.990;7.880;2023-04-03T15:42:07;2.60;;;2.20;;
16640;SDS011;8434;47.990;7.880;2023-04-03T15:44:53;3.50;;;2.10;;
16640;SDS011;8434;47.990;7.880;2023-04-03T15:47:38;1.70;;;1.60;;
16640;SDS011;8434;47.990;7.880;2023-04-03T15:50:25;3.83;;;2.13;;
16640;SDS011;8434;47.990;7.880;2023-04-03T15:53:11;3.67;;;2.20;;
16640;SDS011;8434;47.990;7.880;2023-04-03T15:55:56;2.77;;;1.83;;
16640;SDS011;8434;47.990;7.880;2023-04-03T15:58:42;5.53;;;1.90;;
16640;SDS011;8434;47.990;7.880;2023-04-03T16:01:27;2.80;;;1.90;;
16640;SDS011;8434;47.990;7.880;2023-04-03T16:04:13;2.60;;;1.73;;
16640;SDS011;8434;47.990;7.880;2023-04-03T16:07:01;1.83;;;1.60;;
16640;SDS011;8434;47.990;7.880;2023-04-03T16:09:47;2.67;;;1.90;;
16640;SDS011;8434;47.990;7.880;2023-04-03T16:12:38;2.83;;;1.80;;
16640;SDS011;8434;47.990;7.880;2023-04-03T16:15:23;2.73;;;1.63;;
16640;SDS011;8434;47.990;7.880;2023-04-03T16:18:09;1.80;;;1.70;;
16640;SDS011;8434;47.990;7.880;2023-04-03T16:20:57;2.50;;;1.50;;
16640;SDS011;8434;47.990;7.880;2023-04-03T16:23:44;2.13;;;1.93;;
16640;SDS011;8434;47.990;7.880;2023-04-03T16:26:29;2.30;;;1.90;;
16640;SDS011;8434;47.990;7.880;2023-04-03T16:29:15;1.77;;;1.60;;
16640;SDS011;8434;47.990;7.880;2023-04-03T16:32:00;2.93;;;1.90;;
16640;SDS011;8434;47.990;7.880;2023-04-03T16:34:46;1.97;;;1.50;;
16640;SDS011;8434;47.990;7.880;2023-04-03T16:37:32;1.70;;;1.50;;
16640;SDS011;8434;47.990;7.880;2023-04-03T16:40:18;1.80;;;1.60;;
16640;SDS011;8434;47.990;7.880;2023-04-03T16:43:04;3.73;;;2.00;;
16640;SDS011;8434;47.990;7.880;2023-04-03T16:45:49;2.53;;;1.87;;
16640;SDS011;8434;47.990;7.880;2023-04-03T16:48:35;2.43;;;1.70;;
16640;SDS011;8434;47.990;7.880;2023-04-03T16:51:20;2.67;;;1.60;;
16640;SDS011;8434;47.990;7.880;2023-04-03T16:54:07;2.03;;;1.50;;
16640;SDS011;8434;47.990;7.880;2023-04-03T16:56:56;2.33;;;1.70;;
16640;SDS011;8434;47.990;7.880;2023-04-03T16:59:41;1.80;;;1.60;;
16640;SDS011;8434;47.990;7.880;2023-04-03T17:02:27;1.67;;;1.40;;
16640;SDS011;8434;47.990;7.880;2023-04-03T17:05:13;3.80;;;2.43;;
16640;SDS011;8434;47.990;7.880;2023-04-03T17:07:58;1.93;;;1.77;;